sensor_id;sensor_type;location;lat;lon;timestamp;P1;durP1;ratioP1;P2;durP2;ratioP2
4278;SDS011;2153;47.744;10.580;2024-02-14T00:00:05;11.00;;;1.93;;
4278;SDS011;2153;47.744;10.580;2024-02-14T00:02:35;11.70;;;1.67;;
4278;SDS011;2153;47.744;10.580;2024-02-14T00:05:02;10.40;;;1.90;;
4278;SDS011;2153;47.744;10.580;2024-02-14T00:07:30;12.33;;;1.87;;
4278;SDS011;2153;47.744;10.580;2024-02-14T00:09:57;10.87;;;2.03;;
4278;SDS011;2153;47.744;10.580;2024-02-14T00:12:24;10.63;;;1.67;;
4278;SDS011;2153;47.744;10.580;2024-02-14T00:14:51;10.33;;;1.93;;
4278;SDS011;2153;47.744;10.580;2024-02-14T00:17:19;9.83;;;1.50;;
4278;SDS011;2153;47.744;10.580;2024-02-14T00:19:46;9.90;;;1.60;;
4278;SDS011;2153;47.744;10.580;2024-02-14T00:22:14;9.90;;;1.60;;
4278;SDS011;2153;47.744;10.580;2024-02-14T00:24:42;11.13;;;1.97;;
4278;SDS011;2153;47.744;10.580;2024-02-14T00:27:09;12.13;;;2.03;;
4278;SDS011;2153;47.744;10.580;2024-02-14T00:29:38;10.20;;;1.80;;
4278;SDS011;2153;47.744;10.580;2024-02-14T00:32:05;9.97;;;1.70;;
4278;SDS011;2153;47.744;10.580;2024-02-14T00:34:32;10.10;;;1.70;;
4278;SDS011;2153;47.744;10.580;2024-02-14T00:36:59;12.00;;;2.27;;
4278;SDS011;2153;47.744;10.580;2024-02-14T00:39:26;11.53;;;1.87;;
4278;SDS011;2153;47.744;10.580;2024-02-14T00:41:55;11.30;;;2.17;;
4278;SDS011;2153;47.744;10.580;2024-02-14T00:44:22;12.20;;;2.27;;
4278;SDS011;2153;47.744;10.580;2024-02-14T00:46:49;9.30;;;1.40;;
4278;SDS011;2153;47.744;10.580;2024-02-14T00:49:16;10.47;;;1.60;;
4278;SDS011;2153;47.744;10.580;2024-02-14T00:51:43;10.57;;;1.67;;
4278;SDS011;2153;47.744;10.580;2024-02-14T00:54:10;9.50;;;1.47;;
4278;SDS011;2153;47.744;10.580;2024-02-14T00:56:38;11.00;;;1.83;;
4278;SDS011;2153;47.744;10.580;2024-02-14T00:59:06;10.40;;;2.03;;
4278;SDS011;2153;47.744;10.580;2024-02-14T01:01:33;11.27;;;2.17;;
4278;SDS011;2153;47.744;10.580;2024-02-14T01:04:00;9.50;;;1.30;;
4278;SDS011;2153;47.744;10.580;2024-02-14T01:06:27;11.00;;;1.73;;
4278;SDS011;2153;47.744;10.580;2024-02-14T01:08:56;9.70;;;1.47;;
4278;SDS011;2153;47.744;10.580;2024-02-14T01:11:23;11.50;;;2.10;;
4278;SDS011;2153;47.744;10.580;2024-02-14T01:13:50;10.80;;;1.50;;
4278;SDS011;2153;47.744;10.580;2024-02-14T01:16:18;9.60;;;1.40;;
4278;SDS011;2153;47.744;10.580;2024-02-14T01:18:45;10.23;;;1.70;;
4278;SDS011;2153;47.744;10.580;2024-02-14T01:21:12;10.90;;;1.90;;
4278;SDS011;2153;47.744;10.580;2024-02-14T01:23:39;10.37;;;1.83;;
4278;SDS011;2153;47.744;10.580;2024-02-14T01:26:06;13.00;;;1.83;;
4278;SDS011;2153;47.744;10.580;2024-02-14T01:28:33;13.43;;;2.13;;
4278;SDS011;2153;47.744;10.580;2024-02-14T01:31:00;10.10;;;1.70;;
4278;SDS011;2153;47.744;10.580;2024-02-14T01:33:29;11.30;;;1.80;;
4278;SDS011;2153;47.744;10.580;2024-02-14T01:35:56;10.70;;;1.93;;
4278;SDS011;2153;47.744;10.580;2024-02-14T01:38:23;10.53;;;1.90;;
4278;SDS011;2153;47.744;10.580;2024-02-14T01:40:50;11.37;;;1.60;;
4278;SDS011;2153;47.744;10.580;2024-02-14T01:43:17;10.10;;;1.90;;
4278;SDS011;2153;47.744;10.580;2024-02-14T01:45:46;11.73;;;1.80;;
4278;SDS011;2153;47.744;10.580;2024-02-14T01:48:13;9.90;;;1.40;;
4278;SDS011;2153;47.744;10.580;2024-02-14T01:50:44;10.30;;;1.80;;
4278;SDS011;2153;47.744;10.580;2024-02-14T01:53:12;9.97;;;1.40;;
4278;SDS011;2153;47.744;10.580;2024-02-14T01:55:39;9.80;;;1.60;;
4278;SDS011;2153;47.744;10.580;2024-02-14T01:58:06;10.10;;;1.53;;
4278;SDS011;2153;47.744;10.580;2024-02-14T02:00:34;10.40;;;1.50;;
4278;SDS011;2153;47.744;10.580;2024-02-14T02:03:01;11.00;;;1.33;;
4278;SDS011;2153;47.744;10.580;2024-02-14T02:05:29;11.93;;;1.60;;
4278;SDS011;2153;47.744;10.580;2024-02-14T02:07:57;9.70;;;1.57;;
4278;SDS011;2153;47.744;10.580;2024-02-14T02:10:24;9.93;;;1.30;;
4278;SDS011;2153;47.744;10.580;2024-02-14T02:12:57;11.40;;;1.80;;
4278;SDS011;2153;47.744;10.580;2024-02-14T02:15:25;9.77;;;1.33;;
4278;SDS011;2153;47.744;10.580;2024-02-14T02:17:52;10.60;;;1.60;;
4278;SDS011;2153;47.744;10.580;2024-02-14T02:20:19;12.50;;;1.67;;
4278;SDS011;2153;47.744;10.580;2024-02-14T02:22:48;10.00;;;1.40;;
4278;SDS011;2153;47.744;10.580;2024-02-14T02:25:15;10.47;;;1.57;;
4278;SDS011;2153;47.744;10.580;2024-02-14T02:27:42;10.50;;;1.30;;
4278;SDS011;2153;47.744;10.580;2024-02-14T02:30:09;9.50;;;1.23;;
4278;SDS011;2153;47.744;10.580;2024-02-14T02:32:38;9.60;;;1.17;;
4278;SDS011;2153;47.744;10.580;2024-02-14T02:35:06;10.03;;;1.50;;
4278;SDS011;2153;47.744;10.580;2024-02-14T02:37:34;9.33;;;1.30;;
4278;SDS011;2153;47.744;10.580;2024-02-14T02:40:03;9.67;;;1.30;;
4278;SDS011;2153;47.744;10.580;2024-02-14T02:42:30;9.80;;;1.10;;
4278;SDS011;2153;47.744;10.580;2024-02-14T02:44:57;10.03;;;1.40;;
4278;SDS011;2153;47.744;10.580;2024-02-14T02:47:24;9.13;;;1.30;;
4278;SDS011;2153;47.744;10.580;2024-02-14T02:49:51;9.30;;;1.53;;
4278;SDS011;2153;47.744;10.580;2024-02-14T02:52:18;9.73;;;1.37;;
4278;SDS011;2153;47.744;10.580;2024-02-14T02:54:46;9.20;;;1.20;;
4278;SDS011;2153;47.744;10.580;2024-02-14T02:57:14;9.57;;;1.50;;
4278;SDS011;2153;47.744;10.580;2024-02-14T02:59:44;10.03;;;1.40;;
4278;SDS011;2153;47.744;10.580;2024-02-14T03:02:13;9.70;;;1.53;;
4278;SDS011;2153;47.744;10.580;2024-02-14T03:04:40;9.30;;;1.40;;
4278;SDS011;2153;47.744;10.580;2024-02-14T03:07:07;9.17;;;1.27;;
4278;SDS011;2153;47.744;10.580;2024-02-14T03:09:34;9.87;;;1.40;;
4278;SDS011;2153;47.744;10.580;2024-02-14T03:12:01;9.07;;;1.33;;
4278;SDS011;2153;47.744;10.580;2024-02-14T03:14:30;9.40;;;1.50;;
4278;SDS011;2153;47.744;10.580;2024-02-14T03:16:58;10.23;;;1.30;;
4278;SDS011;2153;47.744;10.580;2024-02-14T03:19:26;10.10;;;1.30;;
4278;SDS011;2153;47.744;10.580;2024-02-14T03:21:53;10.53;;;1.50;;
4278;SDS011;2153;47.744;10.580;2024-02-14T03:24:20;10.53;;;1.20;;
4278;SDS011;2153;47.744;10.580;2024-02-14T03:26:47;10.00;;;1.37;;
4278;SDS011;2153;47.744;10.580;2024-02-14T03:29:16;9.47;;;1.60;;
4278;SDS011;2153;47.744;10.580;2024-02-14T03:31:45;10.23;;;1.20;;
4278;SDS011;2153;47.744;10.580;2024-02-14T03:34:12;11.07;;;1.60;;
4278;SDS011;2153;47.744;10.580;2024-02-14T03:36:40;9.10;;;1.10;;
4278;SDS011;2153;47.744;10.580;2024-02-14T03:39:07;8.90;;;1.27;;
4278;SDS011;2153;47.744;10.580;2024-02-14T03:41:35;9.93;;;1.53;;
4278;SDS011;2153;47.744;10.580;2024-02-14T03:44:02;9.40;;;1.23;;
4278;SDS011;2153;47.744;10.580;2024-02-14T03:46:31;9.30;;;1.30;;
4278;SDS011;2153;47.744;10.580;2024-02-14T03:49:01;9.80;;;1.43;;
4278;SDS011;2153;47.744;10.580;2024-02-14T03:51:28;8.70;;;1.17;;
4278;SDS011;2153;47.744;10.580;2024-02-14T03:53:55;11.73;;;1.70;;
4278;SDS011;2153;47.744;10.580;2024-02-14T03:56:23;9.97;;;2.10;;
4278;SDS011;2153;47.744;10.580;2024-02-14T03:58:51;12.47;;;2.10;;
4278;SDS011;2153;47.744;10.580;2024-02-14T04:01:18;11.10;;;1.83;;
4278;SDS011;2153;47.744;10.580;2024-02-14T04:03:46;18.60;;;2.40;;
4278;SDS011;2153;47.744;10.580;2024-02-14T04:06:15;10.17;;;2.10;;
4278;SDS011;2153;47.744;10.580;2024-02-14T04:08:43;11.40;;;1.90;;
4278;SDS011;2153;47.744;10.580;2024-02-14T04:11:10;11.23;;;1.50;;
4278;SDS011;2153;47.744;10.580;2024-02-14T04:13:38;10.90;;;1.63;;
4278;SDS011;2153;47.744;10.580;2024-02-14T04:16:06;13.63;;;1.60;;
4278;SDS011;2153;47.744;10.580;2024-02-14T04:18:33;10.50;;;1.60;;
4278;SDS011;2153;47.744;10.580;2024-02-14T04:21:00;9.67;;;1.30;;
4278;SDS011;2153;47.744;10.580;2024-02-14T04:23:30;10.10;;;1.40;;
4278;SDS011;2153;47.744;10.580;2024-02-14T04:25:57;10.13;;;1.13;;
4278;SDS011;2153;47.744;10.580;2024-02-14T04:28:24;10.30;;;1.00;;
4278;SDS011;2153;47.744;10.580;2024-02-14T04:30:51;11.63;;;1.40;;
4278;SDS011;2153;47.744;10.580;2024-02-14T04:33:20;9.40;;;1.10;;
4278;SDS011;2153;47.744;10.580;2024-02-14T04:35:47;9.37;;;1.10;;
4278;SDS011;2153;47.744;10.580;2024-02-14T04:38:15;9.50;;;1.40;;
4278;SDS011;2153;47.744;10.580;2024-02-14T04:40:44;10.00;;;1.33;;
4278;SDS011;2153;47.744;10.580;2024-02-14T04:43:12;9.00;;;1.00;;
4278;SDS011;2153;47.744;10.580;2024-02-14T04:45:39;11.20;;;1.50;;
4278;SDS011;2153;47.744;10.580;2024-02-14T04:48:07;10.50;;;1.37;;
4278;SDS011;2153;47.744;10.580;2024-02-14T04:50:34;10.07;;;1.40;;
4278;SDS011;2153;47.744;10.580;2024-02-14T04:53:02;9.10;;;1.10;;
4278;SDS011;2153;47.744;10.580;2024-02-14T04:55:29;9.60;;;1.10;;
4278;SDS011;2153;47.744;10.580;2024-02-14T04:57:57;17.90;;;1.37;;
4278;SDS011;2153;47.744;10.580;2024-02-14T05:00:24;10.40;;;1.23;;
4278;SDS011;2153;47.744;10.580;2024-02-14T05:02:52;13.03;;;1.40;;
4278;SDS011;2153;47.744;10.580;2024-02-14T05:05:20;9.17;;;1.10;;
4278;SDS011;2153;47.744;10.580;2024-02-14T05:07:47;9.20;;;1.00;;
4278;SDS011;2153;47.744;10.580;2024-02-14T05:10:14;9.93;;;1.37;;
4278;SDS011;2153;47.744;10.580;2024-02-14T05:12:41;10.10;;;1.33;;
4278;SDS011;2153;47.744;10.580;2024-02-14T05:15:09;9.73;;;1.33;;
4278;SDS011;2153;47.744;10.580;2024-02-14T05:17:37;10.73;;;1.33;;
4278;SDS011;2153;47.744;10.580;2024-02-14T05:20:05;12.70;;;1.10;;
4278;SDS011;2153;47.744;10.580;2024-02-14T05:22:34;9.40;;;1.30;;
4278;SDS011;2153;47.744;10.580;2024-02-14T05:25:01;9.90;;;1.30;;
4278;SDS011;2153;47.744;10.580;2024-02-14T05:27:29;9.40;;;1.27;;
4278;SDS011;2153;47.744;10.580;2024-02-14T05:29:56;11.97;;;1.30;;
4278;SDS011;2153;47.744;10.580;2024-02-14T05:32:24;11.80;;;1.27;;
4278;SDS011;2153;47.744;10.580;2024-02-14T05:34:51;9.50;;;1.20;;
4278;SDS011;2153;47.744;10.580;2024-02-14T05:37:19;10.90;;;1.13;;
4278;SDS011;2153;47.744;10.580;2024-02-14T05:39:46;15.27;;;1.70;;
4278;SDS011;2153;47.744;10.580;2024-02-14T05:42:13;11.30;;;1.63;;
4278;SDS011;2153;47.744;10.580;2024-02-14T05:44:41;9.27;;;1.23;;
4278;SDS011;2153;47.744;10.580;2024-02-14T05:47:08;9.90;;;1.20;;
4278;SDS011;2153;47.744;10.580;2024-02-14T05:49:37;9.50;;;1.10;;
4278;SDS011;2153;47.744;10.580;2024-02-14T05:52:04;9.90;;;1.10;;
4278;SDS011;2153;47.744;10.580;2024-02-14T05:54:32;9.20;;;1.07;;
4278;SDS011;2153;47.744;10.580;2024-02-14T05:56:59;9.70;;;1.00;;
4278;SDS011;2153;47.744;10.580;2024-02-14T05:59:26;10.83;;;1.33;;
4278;SDS011;2153;47.744;10.580;2024-02-14T06:01:53;9.53;;;1.30;;
4278;SDS011;2153;47.744;10.580;2024-02-14T06:04:20;12.90;;;1.80;;
4278;SDS011;2153;47.744;10.580;2024-02-14T06:06:48;10.13;;;1.63;;
4278;SDS011;2153;47.744;10.580;2024-02-14T06:09:15;10.40;;;1.17;;
4278;SDS011;2153;47.744;10.580;2024-02-14T06:11:42;11.53;;;1.73;;
4278;SDS011;2153;47.744;10.580;2024-02-14T06:14:09;9.90;;;1.13;;
4278;SDS011;2153;47.744;10.580;2024-02-14T06:16:37;12.10;;;1.53;;
4278;SDS011;2153;47.744;10.580;2024-02-14T06:19:04;10.43;;;1.23;;
4278;SDS011;2153;47.744;10.580;2024-02-14T06:21:31;10.63;;;1.20;;
4278;SDS011;2153;47.744;10.580;2024-02-14T06:24:00;11.43;;;1.73;;
4278;SDS011;2153;47.744;10.580;2024-02-14T06:26:29;10.40;;;1.37;;
4278;SDS011;2153;47.744;10.580;2024-02-14T06:28:56;11.20;;;1.40;;
4278;SDS011;2153;47.744;10.580;2024-02-14T06:31:23;9.83;;;1.10;;
4278;SDS011;2153;47.744;10.580;2024-02-14T06:33:50;12.17;;;1.30;;
4278;SDS011;2153;47.744;10.580;2024-02-14T06:36:17;10.00;;;1.10;;
4278;SDS011;2153;47.744;10.580;2024-02-14T06:38:44;10.63;;;1.23;;
4278;SDS011;2153;47.744;10.580;2024-02-14T06:41:13;11.00;;;1.10;;
4278;SDS011;2153;47.744;10.580;2024-02-14T06:43:40;10.37;;;1.13;;
4278;SDS011;2153;47.744;10.580;2024-02-14T06:46:07;11.90;;;1.20;;
4278;SDS011;2153;47.744;10.580;2024-02-14T06:48:34;10.60;;;1.20;;
4278;SDS011;2153;47.744;10.580;2024-02-14T06:51:01;9.90;;;1.20;;
4278;SDS011;2153;47.744;10.580;2024-02-14T06:53:28;11.17;;;1.00;;
4278;SDS011;2153;47.744;10.580;2024-02-14T06:55:55;11.40;;;1.30;;
4278;SDS011;2153;47.744;10.580;2024-02-14T06:58:24;10.50;;;1.20;;
4278;SDS011;2153;47.744;10.580;2024-02-14T07:00:51;11.63;;;1.10;;
4278;SDS011;2153;47.744;10.580;2024-02-14T07:03:18;10.40;;;1.17;;
4278;SDS011;2153;47.744;10.580;2024-02-14T07:05:45;12.33;;;1.40;;
4278;SDS011;2153;47.744;10.580;2024-02-14T07:08:12;11.77;;;1.20;;
4278;SDS011;2153;47.744;10.580;2024-02-14T07:10:40;10.40;;;1.00;;
4278;SDS011;2153;47.744;10.580;2024-02-14T07:13:07;10.00;;;0.80;;
4278;SDS011;2153;47.744;10.580;2024-02-14T07:15:35;10.33;;;1.30;;
4278;SDS011;2153;47.744;10.580;2024-02-14T07:18:02;10.73;;;1.00;;
4278;SDS011;2153;47.744;10.580;2024-02-14T07:20:29;11.80;;;1.13;;
4278;SDS011;2153;47.744;10.580;2024-02-14T07:22:56;10.60;;;1.27;;
4278;SDS011;2153;47.744;10.580;2024-02-14T07:25:23;10.17;;;1.00;;
4278;SDS011;2153;47.744;10.580;2024-02-14T07:27:50;11.47;;;1.17;;
4278;SDS011;2153;47.744;10.580;2024-02-14T07:30:17;11.33;;;1.10;;
4278;SDS011;2153;47.744;10.580;2024-02-14T07:32:45;10.80;;;1.30;;
4278;SDS011;2153;47.744;10.580;2024-02-14T07:35:12;10.50;;;1.00;;
4278;SDS011;2153;47.744;10.580;2024-02-14T07:37:40;9.93;;;1.00;;
4278;SDS011;2153;47.744;10.580;2024-02-14T07:40:07;10.20;;;1.10;;
4278;SDS011;2153;47.744;10.580;2024-02-14T07:42:35;10.87;;;1.00;;
4278;SDS011;2153;47.744;10.580;2024-02-14T07:45:02;10.30;;;0.90;;
4278;SDS011;2153;47.744;10.580;2024-02-14T07:47:29;9.67;;;0.70;;
4278;SDS011;2153;47.744;10.580;2024-02-14T07:49:57;12.77;;;1.23;;
4278;SDS011;2153;47.744;10.580;2024-02-14T07:52:24;10.50;;;1.20;;
4278;SDS011;2153;47.744;10.580;2024-02-14T07:54:52;10.97;;;1.40;;
4278;SDS011;2153;47.744;10.580;2024-02-14T07:57:20;10.80;;;1.20;;
4278;SDS011;2153;47.744;10.580;2024-02-14T07:59:47;10.30;;;1.10;;
4278;SDS011;2153;47.744;10.580;2024-02-14T08:02:14;10.80;;;1.37;;
4278;SDS011;2153;47.744;10.580;2024-02-14T08:04:41;11.37;;;1.60;;
4278;SDS011;2153;47.744;10.580;2024-02-14T08:07:09;11.90;;;1.40;;
4278;SDS011;2153;47.744;10.580;2024-02-14T08:09:37;10.70;;;1.20;;
4278;SDS011;2153;47.744;10.580;2024-02-14T08:12:05;13.50;;;1.93;;
4278;SDS011;2153;47.744;10.580;2024-02-14T08:14:32;11.87;;;1.33;;
4278;SDS011;2153;47.744;10.580;2024-02-14T08:16:59;10.17;;;0.80;;
4278;SDS011;2153;47.744;10.580;2024-02-14T08:19:26;14.03;;;1.77;;
4278;SDS011;2153;47.744;10.580;2024-02-14T08:21:53;11.70;;;1.70;;
4278;SDS011;2153;47.744;10.580;2024-02-14T08:24:24;11.53;;;1.30;;
4278;SDS011;2153;47.744;10.580;2024-02-14T08:26:51;11.77;;;1.33;;
4278;SDS011;2153;47.744;10.580;2024-02-14T08:29:19;10.90;;;1.10;;
4278;SDS011;2153;47.744;10.580;2024-02-14T08:31:46;11.50;;;1.30;;
4278;SDS011;2153;47.744;10.580;2024-02-14T08:34:14;12.60;;;1.20;;
4278;SDS011;2153;47.744;10.580;2024-02-14T08:36:41;10.90;;;0.90;;
4278;SDS011;2153;47.744;10.580;2024-02-14T08:39:09;11.10;;;1.00;;
4278;SDS011;2153;47.744;10.580;2024-02-14T08:41:38;11.17;;;1.10;;
4278;SDS011;2153;47.744;10.580;2024-02-14T08:44:08;10.57;;;0.80;;
4278;SDS011;2153;47.744;10.580;2024-02-14T08:46:35;13.70;;;1.40;;
4278;SDS011;2153;47.744;10.580;2024-02-14T08:49:02;12.60;;;1.63;;
4278;SDS011;2153;47.744;10.580;2024-02-14T08:51:33;11.30;;;1.30;;
4278;SDS011;2153;47.744;10.580;2024-02-14T08:54:00;11.53;;;1.30;;
4278;SDS011;2153;47.744;10.580;2024-02-14T08:56:30;11.63;;;1.13;;
4278;SDS011;2153;47.744;10.580;2024-02-14T08:58:59;12.10;;;1.23;;
4278;SDS011;2153;47.744;10.580;2024-02-14T09:01:27;12.03;;;1.10;;
4278;SDS011;2153;47.744;10.580;2024-02-14T09:03:54;10.70;;;0.90;;
4278;SDS011;2153;47.744;10.580;2024-02-14T09:06:21;11.20;;;1.17;;
4278;SDS011;2153;47.744;10.580;2024-02-14T09:08:48;11.53;;;1.30;;
4278;SDS011;2153;47.744;10.580;2024-02-14T09:11:16;12.10;;;1.30;;
4278;SDS011;2153;47.744;10.580;2024-02-14T09:13:43;15.20;;;2.67;;
4278;SDS011;2153;47.744;10.580;2024-02-14T09:16:14;12.17;;;1.30;;
4278;SDS011;2153;47.744;10.580;2024-02-14T09:18:41;12.50;;;1.00;;
4278;SDS011;2153;47.744;10.580;2024-02-14T09:21:08;12.30;;;1.10;;
4278;SDS011;2153;47.744;10.580;2024-02-14T09:23:35;12.50;;;1.13;;
4278;SDS011;2153;47.744;10.580;2024-02-14T09:26:05;12.67;;;1.10;;
4278;SDS011;2153;47.744;10.580;2024-02-14T09:28:32;13.80;;;1.20;;
4278;SDS011;2153;47.744;10.580;2024-02-14T09:31:00;12.80;;;1.27;;
4278;SDS011;2153;47.744;10.580;2024-02-14T09:33:30;12.00;;;1.10;;
4278;SDS011;2153;47.744;10.580;2024-02-14T09:35:57;14.80;;;1.70;;
4278;SDS011;2153;47.744;10.580;2024-02-14T09:38:24;13.80;;;1.90;;
4278;SDS011;2153;47.744;10.580;2024-02-14T09:40:52;13.27;;;1.90;;
4278;SDS011;2153;47.744;10.580;2024-02-14T09:43:22;13.17;;;1.50;;
4278;SDS011;2153;47.744;10.580;2024-02-14T09:45:52;12.50;;;1.30;;
4278;SDS011;2153;47.744;10.580;2024-02-14T09:48:19;13.30;;;1.50;;
4278;SDS011;2153;47.744;10.580;2024-02-14T09:50:48;12.70;;;1.20;;
4278;SDS011;2153;47.744;10.580;2024-02-14T09:53:15;12.80;;;1.03;;
4278;SDS011;2153;47.744;10.580;2024-02-14T09:55:43;13.80;;;1.60;;
4278;SDS011;2153;47.744;10.580;2024-02-14T09:58:12;12.27;;;1.30;;
4278;SDS011;2153;47.744;10.580;2024-02-14T10:00:39;11.90;;;0.87;;
4278;SDS011;2153;47.744;10.580;2024-02-14T10:03:07;11.83;;;1.00;;
4278;SDS011;2153;47.744;10.580;2024-02-14T10:05:34;12.40;;;1.17;;
4278;SDS011;2153;47.744;10.580;2024-02-14T10:08:03;15.83;;;2.40;;
4278;SDS011;2153;47.744;10.580;2024-02-14T10:10:31;12.00;;;0.87;;
4278;SDS011;2153;47.744;10.580;2024-02-14T10:13:00;11.97;;;1.00;;
4278;SDS011;2153;47.744;10.580;2024-02-14T10:15:27;12.37;;;1.20;;
4278;SDS011;2153;47.744;10.580;2024-02-14T10:17:57;13.20;;;1.60;;
4278;SDS011;2153;47.744;10.580;2024-02-14T10:20:24;12.63;;;1.00;;
4278;SDS011;2153;47.744;10.580;2024-02-14T10:22:53;13.77;;;1.33;;
4278;SDS011;2153;47.744;10.580;2024-02-14T10:25:28;12.73;;;1.30;;
4278;SDS011;2153;47.744;10.580;2024-02-14T10:27:56;13.50;;;1.20;;
4278;SDS011;2153;47.744;10.580;2024-02-14T10:30:23;11.90;;;1.10;;
4278;SDS011;2153;47.744;10.580;2024-02-14T10:32:50;12.60;;;1.37;;
4278;SDS011;2153;47.744;10.580;2024-02-14T10:35:17;11.90;;;1.10;;
4278;SDS011;2153;47.744;10.580;2024-02-14T10:37:46;12.30;;;1.43;;
4278;SDS011;2153;47.744;10.580;2024-02-14T10:40:14;12.87;;;1.23;;
4278;SDS011;2153;47.744;10.580;2024-02-14T10:42:42;12.83;;;1.33;;
4278;SDS011;2153;47.744;10.580;2024-02-14T10:45:09;12.80;;;1.40;;
4278;SDS011;2153;47.744;10.580;2024-02-14T10:47:36;12.37;;;1.50;;
4278;SDS011;2153;47.744;10.580;2024-02-14T10:50:07;13.40;;;2.07;;
4278;SDS011;2153;47.744;10.580;2024-02-14T10:52:34;12.60;;;1.30;;
4278;SDS011;2153;47.744;10.580;2024-02-14T10:55:02;11.97;;;1.00;;
4278;SDS011;2153;47.744;10.580;2024-02-14T10:57:30;13.30;;;1.83;;
4278;SDS011;2153;47.744;10.580;2024-02-14T10:59:59;13.27;;;1.50;;
4278;SDS011;2153;47.744;10.580;2024-02-14T11:02:27;13.83;;;1.20;;
4278;SDS011;2153;47.744;10.580;2024-02-14T11:04:55;12.30;;;0.97;;
4278;SDS011;2153;47.744;10.580;2024-02-14T11:07:22;13.33;;;1.03;;
4278;SDS011;2153;47.744;10.580;2024-02-14T11:09:59;12.50;;;1.07;;
4278;SDS011;2153;47.744;10.580;2024-02-14T11:12:27;11.80;;;0.70;;
4278;SDS011;2153;47.744;10.580;2024-02-14T11:14:56;12.00;;;1.00;;
4278;SDS011;2153;47.744;10.580;2024-02-14T11:17:26;12.30;;;0.90;;
4278;SDS011;2153;47.744;10.580;2024-02-14T11:51:47;14.03;;;1.20;;
4278;SDS011;2153;47.744;10.580;2024-02-14T11:54:14;11.57;;;0.60;;
4278;SDS011;2153;47.744;10.580;2024-02-14T11:56:43;12.00;;;1.00;;
4278;SDS011;2153;47.744;10.580;2024-02-14T11:59:10;11.80;;;0.80;;
4278;SDS011;2153;47.744;10.580;2024-02-14T12:01:37;13.07;;;1.10;;
4278;SDS011;2153;47.744;10.580;2024-02-14T12:04:05;11.87;;;0.80;;
4278;SDS011;2153;47.744;10.580;2024-02-14T12:06:33;12.47;;;0.90;;
4278;SDS011;2153;47.744;10.580;2024-02-14T12:09:02;13.40;;;1.00;;
4278;SDS011;2153;47.744;10.580;2024-02-14T12:11:30;12.40;;;0.93;;
4278;SDS011;2153;47.744;10.580;2024-02-14T12:14:00;12.43;;;1.03;;
4278;SDS011;2153;47.744;10.580;2024-02-14T12:16:27;12.50;;;1.07;;
4278;SDS011;2153;47.744;10.580;2024-02-14T12:19:03;12.00;;;0.77;;
4278;SDS011;2153;47.744;10.580;2024-02-14T12:21:32;12.30;;;1.00;;
4278;SDS011;2153;47.744;10.580;2024-02-14T12:24:00;12.50;;;1.10;;
4278;SDS011;2153;47.744;10.580;2024-02-14T12:26:28;12.70;;;1.10;;
4278;SDS011;2153;47.744;10.580;2024-02-14T12:28:56;12.77;;;0.90;;
4278;SDS011;2153;47.744;10.580;2024-02-14T12:31:23;17.90;;;1.07;;
4278;SDS011;2153;47.744;10.580;2024-02-14T12:33:50;11.97;;;0.80;;
4278;SDS011;2153;47.744;10.580;2024-02-14T12:36:20;12.40;;;1.03;;
4278;SDS011;2153;47.744;10.580;2024-02-14T12:38:47;12.07;;;0.87;;
4278;SDS011;2153;47.744;10.580;2024-02-14T12:41:14;11.90;;;0.70;;
4278;SDS011;2153;47.744;10.580;2024-02-14T12:43:41;12.00;;;0.70;;
4278;SDS011;2153;47.744;10.580;2024-02-14T12:46:08;11.93;;;0.93;;
4278;SDS011;2153;47.744;10.580;2024-02-14T12:48:35;12.40;;;1.17;;
4278;SDS011;2153;47.744;10.580;2024-02-14T12:51:03;12.40;;;1.00;;
4278;SDS011;2153;47.744;10.580;2024-02-14T12:53:30;12.37;;;1.20;;
4278;SDS011;2153;47.744;10.580;2024-02-14T12:55:57;13.47;;;0.80;;
4278;SDS011;2153;47.744;10.580;2024-02-14T12:58:24;12.67;;;0.67;;
4278;SDS011;2153;47.744;10.580;2024-02-14T13:00:53;12.90;;;0.80;;
4278;SDS011;2153;47.744;10.580;2024-02-14T13:03:20;12.00;;;0.90;;
4278;SDS011;2153;47.744;10.580;2024-02-14T13:05:47;16.10;;;0.87;;
4278;SDS011;2153;47.744;10.580;2024-02-14T13:08:15;12.20;;;1.03;;
4278;SDS011;2153;47.744;10.580;2024-02-14T13:10:43;12.50;;;0.80;;
4278;SDS011;2153;47.744;10.580;2024-02-14T13:13:10;12.47;;;1.00;;
4278;SDS011;2153;47.744;10.580;2024-02-14T13:15:37;12.17;;;0.93;;
4278;SDS011;2153;47.744;10.580;2024-02-14T13:18:06;12.17;;;1.00;;
4278;SDS011;2153;47.744;10.580;2024-02-14T13:20:34;12.15;;;0.90;;
4278;SDS011;2153;47.744;10.580;2024-02-14T13:23:00;12.80;;;1.10;;
4278;SDS011;2153;47.744;10.580;2024-02-14T13:25:28;11.80;;;0.67;;
4278;SDS011;2153;47.744;10.580;2024-02-14T13:27:55;15.17;;;0.90;;
4278;SDS011;2153;47.744;10.580;2024-02-14T13:30:23;11.83;;;0.80;;
4278;SDS011;2153;47.744;10.580;2024-02-14T13:32:50;13.80;;;1.10;;
4278;SDS011;2153;47.744;10.580;2024-02-14T13:35:19;12.70;;;1.00;;
4278;SDS011;2153;47.744;10.580;2024-02-14T13:37:46;12.30;;;0.93;;
4278;SDS011;2153;47.744;10.580;2024-02-14T13:40:13;12.70;;;0.90;;
4278;SDS011;2153;47.744;10.580;2024-02-14T13:42:40;11.67;;;0.80;;
4278;SDS011;2153;47.744;10.580;2024-02-14T13:45:08;11.93;;;0.80;;
4278;SDS011;2153;47.744;10.580;2024-02-14T13:47:36;12.30;;;0.90;;
4278;SDS011;2153;47.744;10.580;2024-02-14T13:50:05;13.50;;;1.00;;
4278;SDS011;2153;47.744;10.580;2024-02-14T13:52:33;18.83;;;0.93;;
4278;SDS011;2153;47.744;10.580;2024-02-14T13:55:00;12.50;;;0.90;;
4278;SDS011;2153;47.744;10.580;2024-02-14T13:57:27;12.17;;;0.90;;
4278;SDS011;2153;47.744;10.580;2024-02-14T13:59:55;13.13;;;0.80;;
4278;SDS011;2153;47.744;10.580;2024-02-14T14:02:22;13.33;;;1.00;;
4278;SDS011;2153;47.744;10.580;2024-02-14T14:04:49;11.90;;;0.90;;
4278;SDS011;2153;47.744;10.580;2024-02-14T14:07:18;12.47;;;1.03;;
4278;SDS011;2153;47.744;10.580;2024-02-14T14:09:46;11.70;;;0.90;;
4278;SDS011;2153;47.744;10.580;2024-02-14T14:12:13;12.10;;;1.07;;
4278;SDS011;2153;47.744;10.580;2024-02-14T14:14:40;12.37;;;1.10;;
4278;SDS011;2153;47.744;10.580;2024-02-14T14:17:07;12.10;;;0.80;;
4278;SDS011;2153;47.744;10.580;2024-02-14T14:19:34;12.23;;;0.80;;
4278;SDS011;2153;47.744;10.580;2024-02-14T14:22:01;13.90;;;0.90;;
4278;SDS011;2153;47.744;10.580;2024-02-14T14:24:28;11.80;;;0.80;;
4278;SDS011;2153;47.744;10.580;2024-02-14T14:26:58;12.30;;;0.90;;
4278;SDS011;2153;47.744;10.580;2024-02-14T14:29:25;12.50;;;1.13;;
4278;SDS011;2153;47.744;10.580;2024-02-14T14:31:53;12.60;;;1.40;;
4278;SDS011;2153;47.744;10.580;2024-02-14T14:34:20;12.73;;;1.30;;
4278;SDS011;2153;47.744;10.580;2024-02-14T14:36:47;12.73;;;1.00;;
4278;SDS011;2153;47.744;10.580;2024-02-14T14:39:14;12.57;;;1.20;;
4278;SDS011;2153;47.744;10.580;2024-02-14T14:41:41;12.07;;;1.27;;
4278;SDS011;2153;47.744;10.580;2024-02-14T14:44:10;12.90;;;1.30;;
4278;SDS011;2153;47.744;10.580;2024-02-14T14:46:37;13.10;;;1.13;;
4278;SDS011;2153;47.744;10.580;2024-02-14T14:49:07;11.80;;;0.93;;
4278;SDS011;2153;47.744;10.580;2024-02-14T14:51:34;12.17;;;1.00;;
4278;SDS011;2153;47.744;10.580;2024-02-14T14:54:03;11.73;;;0.90;;
4278;SDS011;2153;47.744;10.580;2024-02-14T14:56:30;11.90;;;1.10;;
4278;SDS011;2153;47.744;10.580;2024-02-14T14:58:57;12.70;;;0.90;;
4278;SDS011;2153;47.744;10.580;2024-02-14T15:01:29;12.00;;;1.10;;
4278;SDS011;2153;47.744;10.580;2024-02-14T15:03:56;11.73;;;0.83;;
4278;SDS011;2153;47.744;10.580;2024-02-14T15:06:24;11.80;;;1.00;;
4278;SDS011;2153;47.744;10.580;2024-02-14T15:08:51;12.30;;;0.90;;
4278;SDS011;2153;47.744;10.580;2024-02-14T15:11:18;12.00;;;1.10;;
4278;SDS011;2153;47.744;10.580;2024-02-14T15:13:46;12.00;;;0.90;;
4278;SDS011;2153;47.744;10.580;2024-02-14T15:16:13;12.90;;;1.40;;
4278;SDS011;2153;47.744;10.580;2024-02-14T15:18:41;12.83;;;1.10;;
4278;SDS011;2153;47.744;10.580;2024-02-14T15:21:09;12.60;;;1.20;;
4278;SDS011;2153;47.744;10.580;2024-02-14T15:23:36;14.27;;;1.13;;